Time;durP1;ratioP1;P1;durP2;ratioP2;P2;SDS_P1;SDS_P2;PMS_P1;PMS_P2;Temp;Humidity;BMP_temperature;BMP_pressure;BME280_temperature;BME280_humidity;BME280_pressure;Samples;Min_cycle;Max_cycle;Signal;HPM_P1;HPM_P2
2023/07/19 00:01:05;;;;;;;5.57;4.45;;;24.60;46.10;;;;;;6109793;23;114162;-77
2023/07/19 00:03:32;;;;;;;7.35;4.30;;;24.70;46.20;;;;;;6109645;23;115280;-77
2023/07/19 00:06:01;;;;;;;8.63;4.40;;;24.60;46.20;;;;;;6108919;23;115661;-78
2023/07/19 00:08:28;;;;;;;7.15;4.60;;;24.70;46.30;;;;;;6109866;23;114200;-77
2023/07/19 00:10:55;;;;;;;7.40;4.32;;;24.70;46.20;;;;;;6135309;22;114149;-78
2023/07/19 00:13:23;;;;;;;7.75;4.80;;;24.60;46.10;;;;;;6084421;23;115183;-78
2023/07/19 00:15:50;;;;;;;7.15;4.90;;;24.70;46.10;;;;;;6110362;23;115139;-78
2023/07/19 00:18:17;;;;;;;6.88;4.28;;;24.60;45.80;;;;;;6109140;23;114407;-78
2023/07/19 00:20:45;;;;;;;7.35;4.38;;;24.50;46.20;;;;;;6134630;22;114319;-78
2023/07/19 00:23:12;;;;;;;6.65;4.85;;;24.50;46.40;;;;;;6110246;23;116329;-78
2023/07/19 00:25:39;;;;;;;8.10;4.50;;;24.50;46.20;;;;;;6133594;22;114569;-78
2023/07/19 00:28:06;;;;;;;8.45;4.60;;;24.60;46.30;;;;;;6111483;23;114150;-78
2023/07/19 00:30:33;;;;;;;7.97;5.13;;;24.60;46.20;;;;;;6111146;23;114081;-78
2023/07/19 00:33:03;;;;;;;5.45;4.20;;;24.60;45.80;;;;;;6108717;23;114985;-77
2023/07/19 00:35:33;;;;;;;11.30;7.20;;;24.60;46.20;;;;;;6110572;23;115149;-77
2023/07/19 00:38:00;;;;;;;8.88;6.88;;;24.60;45.80;;;;;;6111331;23;114124;-77
2023/07/19 00:40:27;;;;;;;8.18;5.95;;;24.50;46.20;;;;;;6112039;22;114162;-78
2023/07/19 00:42:57;;;;;;;6.38;5.00;;;24.50;46.20;;;;;;6133216;22;116924;-78
2023/07/19 00:45:27;;;;;;;9.27;5.53;;;24.40;46.20;;;;;;6110053;23;114568;-78
2023/07/19 00:47:55;;;;;;;5.47;4.07;;;24.40;45.30;;;;;;6134509;22;114439;-77
2023/07/19 00:50:23;;;;;;;6.78;4.72;;;24.30;46.50;;;;;;6109304;23;114251;-77
2023/07/19 00:52:50;;;;;;;8.15;5.57;;;24.30;46.70;;;;;;6083657;23;116194;-77
2023/07/19 00:55:18;;;;;;;10.65;6.80;;;24.20;46.30;;;;;;6109684;22;116087;-78
2023/07/19 00:57:47;;;;;;;8.43;5.43;;;24.10;46.70;;;;;;6085224;23;114281;-78
2023/07/19 01:00:14;;;;;;;9.95;6.65;;;24.00;46.80;;;;;;6110021;23;114054;-77
2023/07/19 01:02:41;;;;;;;7.45;5.05;;;24.00;46.70;;;;;;6133576;22;114995;-77
2023/07/19 01:05:09;;;;;;;10.07;6.82;;;24.00;46.90;;;;;;6133827;22;114634;-78
2023/07/19 01:07:37;;;;;;;7.03;4.57;;;24.00;47.00;;;;;;6110267;23;114186;-79
2023/07/19 01:10:05;;;;;;;9.32;6.75;;;24.10;47.20;;;;;;6110952;23;114225;-78
2023/07/19 01:12:32;;;;;;;12.05;8.50;;;24.20;47.20;;;;;;6108586;22;116250;-78
2023/07/19 01:14:59;;;;;;;15.02;11.05;;;24.10;47.00;;;;;;6109987;23;114567;-79
2023/07/19 01:17:26;;;;;;;6.55;4.93;;;24.20;47.00;;;;;;6109346;23;114447;-79
2023/07/19 01:19:55;;;;;;;6.63;4.78;;;24.30;47.00;;;;;;6134308;22;114333;-78
2023/07/19 01:22:26;;;;;;;8.20;4.60;;;24.30;46.90;;;;;;6133234;22;114800;-78
2023/07/19 01:24:54;;;;;;;7.32;5.38;;;24.30;46.70;;;;;;6133660;22;114693;-78
2023/07/19 01:27:21;;;;;;;10.63;6.25;;;24.30;46.70;;;;;;6109294;23;114455;-78
2023/07/19 01:29:49;;;;;;;5.50;4.10;;;24.30;46.30;;;;;;6134286;22;114230;-78
2023/07/19 01:32:17;;;;;;;5.60;4.05;;;24.30;46.90;;;;;;6109087;23;115269;-78
2023/07/19 01:34:44;;;;;;;6.45;4.75;;;24.30;47.00;;;;;;6108326;23;114592;-78
2023/07/19 01:37:13;;;;;;;5.78;4.30;;;24.30;46.90;;;;;;6084846;23;114415;-78
2023/07/19 01:39:40;;;;;;;6.88;4.40;;;24.30;46.80;;;;;;6085622;23;114394;-79
2023/07/19 01:42:07;;;;;;;6.72;4.78;;;24.40;46.90;;;;;;6109541;23;117830;-78
2023/07/19 01:44:35;;;;;;;6.60;4.57;;;24.40;46.60;;;;;;6109988;23;114660;-78
2023/07/19 01:47:03;;;;;;;6.45;4.15;;;24.40;46.60;;;;;;6111146;23;114069;-78
2023/07/19 01:49:31;;;;;;;6.65;4.88;;;24.30;46.70;;;;;;6111294;23;114356;-78
2023/07/19 01:51:58;;;;;;;6.13;4.35;;;24.30;46.50;;;;;;6134350;22;114980;-78
2023/07/19 01:54:25;;;;;;;6.68;4.45;;;24.30;46.90;;;;;;6084869;23;117438;-78
2023/07/19 01:56:52;;;;;;;8.73;5.97;;;24.30;46.80;;;;;;6085439;23;114094;-77
2023/07/19 01:59:19;;;;;;;7.47;4.90;;;24.30;46.50;;;;;;6134359;22;114155;-76
2023/07/19 02:01:46;;;;;;;8.23;5.45;;;24.20;46.90;;;;;;6108583;22;116620;-77
2023/07/19 02:04:14;;;;;;;8.35;5.15;;;24.20;46.90;;;;;;6110326;23;114624;-77
2023/07/19 02:06:41;;;;;;;6.93;4.60;;;24.20;47.20;;;;;;6134529;22;114319;-77
2023/07/19 02:09:08;;;;;;;8.45;4.10;;;24.10;47.30;;;;;;6111723;23;113976;-78
2023/07/19 02:11:35;;;;;;;6.55;4.63;;;24.00;47.20;;;;;;6109949;23;117074;-78
2023/07/19 02:14:04;;;;;;;8.02;5.03;;;23.80;47.60;;;;;;6133844;22;114537;-78
2023/07/19 02:16:32;;;;;;;7.03;4.30;;;23.80;47.70;;;;;;6135420;22;114163;-78
2023/07/19 02:19:00;;;;;;;8.02;4.78;;;23.80;47.80;;;;;;6085279;23;114293;-78
2023/07/19 02:21:27;;;;;;;8.20;4.93;;;23.90;47.80;;;;;;6109294;23;115076;-78
2023/07/19 02:23:54;;;;;;;12.85;6.95;;;24.00;47.70;;;;;;6110077;23;114920;-79
2023/07/19 02:26:22;;;;;;;10.55;5.20;;;24.00;47.40;;;;;;6111529;23;114014;-78
2023/07/19 02:28:49;;;;;;;15.05;7.97;;;24.10;47.60;;;;;;6110411;23;114326;-78
2023/07/19 02:31:17;;;;;;;9.48;5.90;;;24.10;47.30;;;;;;6108296;23;114871;-78
2023/07/19 02:33:45;;;;;;;7.88;5.72;;;24.10;47.30;;;;;;6108294;23;114592;-78
2023/07/19 02:36:12;;;;;;;16.27;8.00;;;24.10;47.30;;;;;;6110885;23;114064;-78
2023/07/19 02:38:40;;;;;;;9.27;5.32;;;24.10;46.80;;;;;;6084975;23;114288;-78
2023/07/19 02:41:07;;;;;;;14.50;7.53;;;24.00;47.50;;;;;;6133221;22;115140;-79
2023/07/19 02:43:35;;;;;;;11.43;6.63;;;24.00;47.40;;;;;;6132966;22;114552;-79
2023/07/19 02:46:02;;;;;;;12.57;6.63;;;24.00;47.50;;;;;;6110052;23;114125;-79
2023/07/19 02:48:29;;;;;;;10.20;6.55;;;24.00;47.40;;;;;;6108863;23;114059;-78
2023/07/19 02:50:58;;;;;;;12.25;6.50;;;24.10;47.40;;;;;;6110502;23;115269;-78
2023/07/19 02:53:26;;;;;;;12.32;6.60;;;24.10;47.30;;;;;;6108748;23;114681;-79
2023/07/19 02:55:53;;;;;;;13.45;7.10;;;24.00;47.60;;;;;;6108945;23;114725;-78
2023/07/19 02:58:20;;;;;;;17.65;8.50;;;24.00;47.40;;;;;;6110635;23;114286;-77
2023/07/19 03:00:48;;;;;;;12.68;6.82;;;24.00;47.50;;;;;;6109896;23;115045;-78
2023/07/19 03:03:15;;;;;;;13.30;8.05;;;24.00;47.50;;;;;;6134579;22;114574;-78
2023/07/19 03:05:45;;;;;;;11.23;7.07;;;24.10;47.10;;;;;;6110737;23;114112;-78
2023/07/19 03:08:12;;;;;;;10.05;6.32;;;24.20;46.80;;;;;;6108924;23;114437;-78
2023/07/19 03:10:39;;;;;;;11.75;6.13;;;24.10;46.80;;;;;;6132289;22;114853;-78
2023/07/19 03:13:07;;;;;;;12.55;6.13;;;24.20;47.30;;;;;;6109585;23;114908;-78
2023/07/19 03:15:35;;;;;;;11.20;6.55;;;24.20;47.20;;;;;;6133562;22;114488;-78
2023/07/19 03:18:03;;;;;;;12.38;5.85;;;24.20;47.00;;;;;;6084795;23;114298;-79
2023/07/19 03:20:31;;;;;;;10.35;6.78;;;24.30;47.10;;;;;;6109332;23;114140;-79
2023/07/19 03:23:00;;;;;;;11.18;6.30;;;24.30;46.90;;;;;;6083835;23;114897;-79
2023/07/19 03:25:29;;;;;;;9.65;5.70;;;24.30;46.30;;;;;;6134283;22;114264;-79
2023/07/19 03:27:56;;;;;;;11.85;6.60;;;24.30;46.20;;;;;;6110698;23;114349;-79
2023/07/19 03:30:24;;;;;;;12.38;6.82;;;24.30;46.30;;;;;;6132817;22;114806;-79
2023/07/19 03:32:51;;;;;;;11.30;6.15;;;24.30;46.50;;;;;;6132693;22;114580;-79
2023/07/19 03:35:20;;;;;;;11.38;6.63;;;24.40;46.40;;;;;;6133105;22;114162;-79
2023/07/19 03:37:49;;;;;;;9.27;5.68;;;24.60;46.30;;;;;;6134083;22;114059;-79
2023/07/19 03:40:17;;;;;;;10.25;5.88;;;24.80;45.90;;;;;;6133027;22;116282;-80
2023/07/19 03:42:46;;;;;;;10.15;5.80;;;25.00;44.90;;;;;;6107964;23;114591;-79
2023/07/19 03:45:13;;;;;;;10.32;5.95;;;25.20;45.00;;;;;;6133533;22;114213;-79
2023/07/19 03:47:40;;;;;;;7.47;5.75;;;25.30;44.10;;;;;;6133669;22;114399;-77
2023/07/19 03:50:09;;;;;;;10.10;5.90;;;25.40;44.20;;;;;;6108868;22;115082;-77
2023/07/19 03:52:36;;;;;;;8.75;4.97;;;25.30;44.20;;;;;;6132805;22;114637;-78
2023/07/19 03:55:04;;;;;;;7.05;5.05;;;25.30;44.20;;;;;;6133212;22;114177;-77
2023/07/19 03:57:36;;;;;;;8.25;5.40;;;25.30;44.50;;;;;;6085487;23;114058;-78
2023/07/19 04:00:04;;;;;;;10.95;6.03;;;25.30;44.20;;;;;;6131873;22;116316;-78
2023/07/19 04:02:43;;;;;;;6.88;4.85;;;25.40;43.80;;;;;;6109875;23;114668;-78
2023/07/19 04:05:12;;;;;;;7.13;5.07;;;25.60;44.00;;;;;;6084684;23;114270;-78
2023/07/19 04:07:39;;;;;;;7.97;5.28;;;25.80;43.40;;;;;;6133427;22;114254;-78
2023/07/19 04:10:06;;;;;;;8.63;5.78;;;25.90;43.20;;;;;;6132510;22;114898;-78
2023/07/19 04:12:34;;;;;;;8.20;4.95;;;26.10;42.40;;;;;;6109284;23;114555;-77
2023/07/19 04:15:01;;;;;;;8.02;5.22;;;26.20;41.90;;;;;;6133617;22;114160;-79
2023/07/19 04:17:30;;;;;;;8.63;5.00;;;26.30;42.20;;;;;;6108374;23;114391;-79
2023/07/19 04:19:57;;;;;;;9.65;5.40;;;26.40;41.80;;;;;;6109254;23;114842;-78
2023/07/19 04:22:24;;;;;;;7.43;4.80;;;26.50;41.00;;;;;;6132813;22;114692;-79
2023/07/19 04:24:54;;;;;;;6.72;4.40;;;26.50;40.70;;;;;;6108915;23;114256;-78
2023/07/19 04:27:21;;;;;;;8.18;4.57;;;26.50;40.90;;;;;;6135687;22;114303;-78
2023/07/19 04:29:49;;;;;;;8.57;5.13;;;26.50;40.80;;;;;;6134594;22;115190;-77
2023/07/19 04:32:16;;;;;;;6.95;4.15;;;26.50;41.10;;;;;;6109450;23;115533;-77
2023/07/19 04:34:43;;;;;;;8.07;4.65;;;26.50;40.40;;;;;;6110486;23;114338;-77
2023/07/19 04:37:11;;;;;;;8.07;4.75;;;26.40;40.50;;;;;;6113240;23;114307;-76
2023/07/19 04:39:38;;;;;;;7.78;4.97;;;26.40;40.80;;;;;;6108914;23;114915;-79
2023/07/19 04:42:05;;;;;;;8.27;5.03;;;26.30;41.40;;;;;;6111827;23;114524;-78
2023/07/19 04:44:32;;;;;;;9.77;5.45;;;26.30;40.90;;;;;;6110247;23;114436;-78
2023/07/19 04:47:00;;;;;;;7.85;5.13;;;26.40;41.40;;;;;;6135354;22;114301;-77
2023/07/19 04:49:27;;;;;;;7.22;5.28;;;26.40;41.30;;;;;;6134238;22;114881;-77
2023/07/19 04:51:55;;;;;;;9.75;5.20;;;26.50;40.90;;;;;;6108938;23;114656;-77
2023/07/19 04:54:22;;;;;;;10.73;5.43;;;26.30;41.10;;;;;;6135207;22;114333;-78
2023/07/19 04:56:49;;;;;;;9.05;6.10;;;26.40;41.20;;;;;;6110345;23;114318;-78
2023/07/19 04:59:17;;;;;;;11.38;7.10;;;26.40;41.10;;;;;;6110702;23;114902;-78
2023/07/19 05:01:44;;;;;;;14.20;8.15;;;26.30;41.10;;;;;;6134057;22;114586;-78
2023/07/19 05:04:12;;;;;;;13.63;8.25;;;26.20;41.10;;;;;;6109912;23;114094;-78
2023/07/19 05:06:39;;;;;;;14.52;7.63;;;26.10;41.60;;;;;;6111759;22;114085;-78
2023/07/19 05:09:09;;;;;;;14.98;7.57;;;26.10;41.90;;;;;;6110214;23;115394;-78
2023/07/19 05:11:37;;;;;;;14.82;7.97;;;26.00;41.70;;;;;;6134541;22;114664;-80
2023/07/19 05:14:04;;;;;;;13.02;8.20;;;26.10;41.70;;;;;;6134576;22;114344;-77
2023/07/19 05:16:33;;;;;;;12.80;8.27;;;26.20;41.70;;;;;;6110921;23;114154;-77
2023/07/19 05:19:01;;;;;;;12.25;7.43;;;26.20;41.70;;;;;;6108606;23;116217;-78
2023/07/19 05:21:29;;;;;;;15.15;8.77;;;26.10;41.80;;;;;;6133642;22;115624;-78
2023/07/19 05:23:56;;;;;;;18.42;10.52;;;26.10;41.80;;;;;;6135941;22;114059;-78
2023/07/19 05:26:25;;;;;;;19.45;11.27;;;26.20;41.90;;;;;;6134897;22;114245;-78
2023/07/19 05:28:52;;;;;;;15.57;9.77;;;26.20;41.70;;;;;;6110491;23;116117;-78
2023/07/19 05:31:19;;;;;;;17.60;11.32;;;26.30;41.60;;;;;;6109139;23;114815;-78
2023/07/19 05:33:47;;;;;;;19.75;11.38;;;26.30;41.60;;;;;;6111291;22;114028;-78
2023/07/19 05:36:14;;;;;;;19.40;10.85;;;26.40;41.50;;;;;;6111034;23;114772;-77
2023/07/19 05:38:41;;;;;;;21.48;12.02;;;26.50;41.50;;;;;;6132617;22;116206;-78
2023/07/19 05:41:08;;;;;;;17.65;10.02;;;26.60;41.30;;;;;;6110192;23;114837;-78
2023/07/19 05:43:36;;;;;;;23.08;13.77;;;26.60;41.20;;;;;;6111239;23;114108;-79
2023/07/19 05:46:03;;;;;;;21.60;12.25;;;26.70;41.30;;;;;;6111195;23;114171;-79
2023/07/19 05:48:32;;;;;;;20.13;11.90;;;26.80;41.30;;;;;;6108786;23;118087;-79
2023/07/19 05:51:01;;;;;;;19.13;11.63;;;26.80;41.30;;;;;;6109051;23;114717;-78
2023/07/19 05:53:29;;;;;;;16.35;9.30;;;26.80;41.30;;;;;;6109377;23;114249;-77
2023/07/19 05:55:56;;;;;;;16.55;10.38;;;26.80;41.40;;;;;;6111413;23;114290;-78
2023/07/19 05:58:24;;;;;;;17.75;10.65;;;26.80;41.30;;;;;;6108750;23;117072;-78
2023/07/19 06:00:52;;;;;;;20.20;9.85;;;26.70;41.70;;;;;;6110821;23;115055;-78
2023/07/19 06:03:20;;;;;;;13.65;8.45;;;26.60;41.90;;;;;;6110858;22;114050;-79
2023/07/19 06:05:47;;;;;;;15.52;10.45;;;26.50;42.20;;;;;;6111288;22;114133;-79
2023/07/19 06:08:14;;;;;;;14.85;8.93;;;26.40;42.20;;;;;;6110248;23;114909;-78
2023/07/19 06:10:52;;;;;;;19.45;10.77;;;26.40;42.30;;;;;;6109921;23;114620;-79
2023/07/19 06:13:20;;;;;;;20.33;11.20;;;26.40;42.50;;;;;;6110666;22;114390;-78
2023/07/19 06:15:47;;;;;;;19.10;9.80;;;26.40;42.80;;;;;;6109455;23;114195;-78
2023/07/19 06:18:15;;;;;;;12.90;9.02;;;26.60;42.60;;;;;;6108322;23;116199;-77
2023/07/19 06:20:42;;;;;;;14.55;9.25;;;26.80;42.30;;;;;;6110215;23;116157;-79
2023/07/19 06:23:09;;;;;;;14.93;9.27;;;26.90;41.60;;;;;;6109118;23;114379;-79
2023/07/19 06:25:37;;;;;;;11.35;7.82;;;27.10;41.70;;;;;;6110839;23;114079;-79
2023/07/19 06:28:04;;;;;;;17.02;8.15;;;27.20;41.20;;;;;;6107489;23;114955;-78
2023/07/19 06:30:31;;;;;;;13.15;7.35;;;27.40;40.80;;;;;;6109706;23;114667;-78
2023/07/19 06:32:59;;;;;;;12.73;7.28;;;27.40;40.70;;;;;;6108483;23;114143;-77
2023/07/19 06:35:33;;;;;;;14.65;7.82;;;27.60;40.90;;;;;;6108926;23;114453;-77
2023/07/19 06:38:01;;;;;;;14.38;8.27;;;27.70;40.60;;;;;;6108752;23;115380;-79
2023/07/19 06:40:28;;;;;;;12.90;8.63;;;27.80;40.70;;;;;;6108628;23;115139;-77
2023/07/19 06:42:55;;;;;;;13.25;8.63;;;27.80;41.10;;;;;;6110844;23;114215;-78
2023/07/19 06:45:22;;;;;;;17.90;9.35;;;27.90;40.50;;;;;;6134589;22;114338;-79
2023/07/19 06:47:50;;;;;;;16.77;9.60;;;27.90;40.40;;;;;;6109809;23;114845;-79
2023/07/19 06:50:17;;;;;;;12.10;8.02;;;28.00;40.00;;;;;;6108858;23;114500;-79
2023/07/19 06:52:44;;;;;;;13.93;8.68;;;28.00;40.10;;;;;;6108404;23;114478;-78
2023/07/19 06:55:11;;;;;;;12.60;7.97;;;28.10;39.50;;;;;;6110341;23;114370;-79
2023/07/19 06:57:39;;;;;;;13.15;8.65;;;28.10;39.50;;;;;;6109929;23;115333;-77
2023/07/19 07:00:09;;;;;;;10.20;7.25;;;28.20;39.90;;;;;;6110182;23;114639;-78
2023/07/19 07:02:37;;;;;;;11.90;7.43;;;28.20;39.60;;;;;;6110735;23;114105;-77
2023/07/19 07:05:05;;;;;;;14.05;7.15;;;28.30;39.00;;;;;;6111899;23;114281;-76
2023/07/19 07:07:32;;;;;;;12.95;6.78;;;28.20;39.00;;;;;;6110792;23;114947;-77
2023/07/19 07:10:04;;;;;;;12.48;6.65;;;28.10;39.20;;;;;;6110880;23;114641;-78
2023/07/19 07:12:32;;;;;;;10.32;6.78;;;28.10;39.20;;;;;;6110811;22;114232;-78
2023/07/19 07:14:59;;;;;;;13.18;6.93;;;28.00;39.30;;;;;;6110691;23;114024;-78
2023/07/19 07:17:27;;;;;;;9.27;6.03;;;27.80;39.80;;;;;;6107980;23;116066;-78
2023/07/19 07:19:55;;;;;;;9.25;6.68;;;27.90;39.90;;;;;;6109744;23;114899;-77
2023/07/19 07:22:26;;;;;;;13.00;6.53;;;28.00;39.80;;;;;;6110444;22;114112;-78
2023/07/19 07:24:53;;;;;;;7.88;5.97;;;28.00;39.90;;;;;;6110548;23;114092;-78
2023/07/19 07:27:20;;;;;;;11.18;6.72;;;28.00;39.90;;;;;;6109594;23;115038;-78
2023/07/19 07:29:47;;;;;;;12.20;6.53;;;28.10;39.60;;;;;;6109393;23;114592;-77
2023/07/19 07:32:15;;;;;;;11.48;7.15;;;28.10;39.30;;;;;;6110684;23;113995;-78
2023/07/19 07:34:42;;;;;;;11.98;6.63;;;28.10;39.30;;;;;;6110540;23;114368;-77
2023/07/19 07:37:09;;;;;;;10.10;6.25;;;28.00;39.90;;;;;;6109613;23;115286;-78
2023/07/19 07:39:36;;;;;;;10.63;6.57;;;27.90;40.00;;;;;;6107755;23;116212;-77
2023/07/19 07:42:04;;;;;;;11.55;7.35;;;27.90;39.90;;;;;;6132954;22;114362;-78
2023/07/19 07:44:33;;;;;;;11.82;7.03;;;27.80;39.90;;;;;;6111319;22;114400;-78
2023/07/19 07:47:00;;;;;;;10.88;7.03;;;27.60;40.10;;;;;;6108430;23;114923;-78
2023/07/19 07:49:27;;;;;;;11.13;6.53;;;27.60;40.40;;;;;;6107704;23;115245;-77
2023/07/19 07:51:54;;;;;;;10.73;6.75;;;27.70;40.60;;;;;;6108839;23;114291;-78
2023/07/19 07:54:22;;;;;;;12.18;7.50;;;27.80;40.70;;;;;;6109934;23;114746;-78
2023/07/19 07:56:49;;;;;;;14.50;9.35;;;27.80;40.40;;;;;;6107919;23;114957;-78
2023/07/19 07:59:16;;;;;;;11.73;7.63;;;27.80;40.70;;;;;;6108677;23;115063;-78
2023/07/19 08:01:43;;;;;;;12.55;7.05;;;27.70;41.20;;;;;;6110866;23;114389;-79
2023/07/19 08:04:12;;;;;;;11.27;7.25;;;27.70;40.90;;;;;;6110140;23;114265;-79
2023/07/19 08:06:39;;;;;;;12.07;7.45;;;27.60;40.80;;;;;;6108580;23;115322;-78
2023/07/19 08:09:06;;;;;;;14.85;8.88;;;27.60;41.20;;;;;;6134047;22;114562;-77
2023/07/19 08:11:34;;;;;;;13.48;7.90;;;27.60;41.20;;;;;;6109838;23;114109;-77
2023/07/19 08:14:01;;;;;;;13.13;8.70;;;27.60;41.20;;;;;;6111477;22;114119;-77
2023/07/19 08:16:28;;;;;;;12.13;7.80;;;27.50;41.20;;;;;;6108962;23;114957;-78
2023/07/19 08:18:56;;;;;;;13.60;8.60;;;27.40;41.80;;;;;;6110730;23;114569;-78
2023/07/19 08:21:25;;;;;;;14.65;7.70;;;27.30;41.60;;;;;;6109744;23;114207;-78
2023/07/19 08:24:03;;;;;;;14.30;8.50;;;27.30;41.70;;;;;;6111945;22;114211;-79
2023/07/19 08:26:31;;;;;;;16.20;9.32;;;27.30;41.60;;;;;;6111287;23;115415;-77
2023/07/19 08:28:58;;;;;;;14.50;8.13;;;27.50;42.00;;;;;;6110386;23;115157;-78
2023/07/19 08:31:26;;;;;;;15.32;8.55;;;27.60;41.90;;;;;;6133870;22;114392;-78
2023/07/19 08:33:53;;;;;;;12.43;8.02;;;27.80;40.90;;;;;;6111235;22;114152;-80
2023/07/19 08:36:21;;;;;;;12.52;8.27;;;27.80;41.20;;;;;;6110289;23;114875;-78
2023/07/19 08:38:48;;;;;;;13.15;8.77;;;27.90;41.30;;;;;;6109517;23;114627;-78
2023/07/19 08:41:18;;;;;;;12.60;8.63;;;28.20;40.70;;;;;;6110223;23;114425;-78
2023/07/19 08:43:46;;;;;;;14.55;8.13;;;28.30;39.80;;;;;;6111200;23;114034;-78
2023/07/19 08:46:15;;;;;;;13.77;8.52;;;28.30;40.10;;;;;;6108743;23;114982;-78
2023/07/19 08:48:45;;;;;;;14.15;8.70;;;28.30;39.60;;;;;;6109035;23;114968;-79
2023/07/19 08:51:12;;;;;;;14.38;8.90;;;28.10;40.30;;;;;;6134730;22;114119;-79
2023/07/19 08:53:42;;;;;;;13.38;8.50;;;28.00;40.60;;;;;;6109332;23;114200;-78
2023/07/19 08:56:13;;;;;;;14.45;8.60;;;28.00;40.60;;;;;;6109229;23;114890;-78
2023/07/19 08:58:40;;;;;;;14.13;8.13;;;28.00;40.70;;;;;;6108655;23;115780;-78
2023/07/19 09:01:08;;;;;;;12.85;8.00;;;28.00;40.50;;;;;;6109857;23;114009;-78
2023/07/19 09:03:35;;;;;;;13.55;7.57;;;28.10;40.90;;;;;;6109548;23;114382;-78
2023/07/19 09:06:03;;;;;;;12.50;8.48;;;28.30;41.00;;;;;;6109638;23;115068;-79
2023/07/19 09:08:38;;;;;;;14.55;8.15;;;28.30;40.40;;;;;;6109765;23;115807;-78
2023/07/19 09:11:05;;;;;;;12.75;8.52;;;28.40;40.30;;;;;;6110887;23;114376;-78
2023/07/19 09:13:33;;;;;;;15.18;8.30;;;28.30;40.40;;;;;;6111113;23;114149;-77
2023/07/19 09:16:04;;;;;;;13.27;8.80;;;28.40;40.60;;;;;;6109065;23;117612;-78
2023/07/19 09:18:35;;;;;;;12.38;8.27;;;28.50;40.40;;;;;;6109237;22;114734;-79
2023/07/19 09:21:06;;;;;;;14.65;8.15;;;28.60;40.20;;;;;;6109638;23;114060;-79
2023/07/19 09:23:36;;;;;;;14.35;8.20;;;28.60;40.20;;;;;;6110673;23;114006;-79
2023/07/19 09:26:04;;;;;;;13.02;8.43;;;28.60;40.40;;;;;;6109004;23;115410;-77
2023/07/19 09:28:35;;;;;;;13.95;8.95;;;28.70;40.50;;;;;;6108479;23;114790;-78
2023/07/19 09:31:04;;;;;;;14.38;9.13;;;28.80;40.10;;;;;;6110670;23;114219;-78
2023/07/19 09:33:55;;;;;;;13.80;7.78;;;28.80;40.50;;;;;;6110773;23;114341;-79
2023/07/19 09:36:23;;;;;;;12.93;8.88;;;28.90;39.70;;;;;;6110127;23;115068;-78
2023/07/19 09:38:51;;;;;;;14.23;8.23;;;29.00;40.00;;;;;;6108726;23;115383;-79
2023/07/19 09:41:20;;;;;;;11.02;8.63;;;29.00;39.10;;;;;;6110811;22;114278;-78
2023/07/19 09:43:47;;;;;;;14.68;8.70;;;29.00;39.90;;;;;;6109933;22;114008;-80
2023/07/19 09:46:17;;;;;;;13.93;9.73;;;29.10;39.80;;;;;;6108169;23;115185;-78
2023/07/19 09:48:44;;;;;;;10.95;8.40;;;29.20;39.50;;;;;;6108575;23;114509;-77
2023/07/19 09:51:11;;;;;;;12.05;7.68;;;29.20;39.20;;;;;;6110663;23;114067;-78
2023/07/19 09:53:40;;;;;;;12.05;7.00;;;29.10;39.50;;;;;;6109160;23;114174;-79
2023/07/19 09:56:07;;;;;;;9.77;6.22;;;29.10;39.20;;;;;;6083642;23;114799;-77
2023/07/19 09:58:34;;;;;;;10.68;6.53;;;29.10;39.00;;;;;;6108409;23;114694;-78
2023/07/19 10:01:01;;;;;;;9.25;6.57;;;29.10;39.10;;;;;;6085651;23;114334;-78
2023/07/19 10:03:29;;;;;;;10.63;6.53;;;29.10;39.40;;;;;;6111397;23;114283;-76
2023/07/19 10:05:57;;;;;;;12.43;6.72;;;29.10;39.70;;;;;;6109995;23;114397;-78
2023/07/19 10:08:24;;;;;;;7.90;5.82;;;29.20;39.40;;;;;;6108519;23;117380;-78
2023/07/19 10:10:59;;;;;;;18.92;6.82;;;29.20;39.40;;;;;;6133783;22;114207;-78
2023/07/19 10:13:30;;;;;;;12.32;5.60;;;29.30;39.20;;;;;;6111106;23;114004;-77
2023/07/19 10:15:58;;;;;;;13.88;6.18;;;29.30;38.90;;;;;;6108782;23;114882;-78
2023/07/19 10:18:29;;;;;;;12.23;7.15;;;29.40;38.90;;;;;;6109929;22;115752;-78
2023/07/19 10:21:03;;;;;;;11.27;6.35;;;29.50;38.90;;;;;;6110914;23;114108;-78
2023/07/19 10:23:31;;;;;;;9.13;5.75;;;29.60;38.70;;;;;;6109376;23;114854;-78
2023/07/19 10:26:06;;;;;;;12.38;5.70;;;29.70;38.40;;;;;;6110005;23;114910;-78
2023/07/19 10:28:33;;;;;;;7.38;5.53;;;29.80;38.40;;;;;;6110713;23;114631;-78
2023/07/19 10:31:03;;;;;;;9.35;5.38;;;29.80;38.60;;;;;;6111323;23;114067;-79
2023/07/19 10:33:53;;;;;;;9.02;5.90;;;29.70;38.20;;;;;;6110965;23;114410;-78
2023/07/19 10:36:21;;;;;;;10.05;5.93;;;29.60;38.40;;;;;;6107676;23;114965;-78
2023/07/19 10:38:49;;;;;;;10.27;5.68;;;29.70;38.90;;;;;;6109839;23;114550;-79
2023/07/19 10:41:19;;;;;;;11.45;5.65;;;29.80;38.10;;;;;;6111992;23;114154;-78
2023/07/19 10:43:46;;;;;;;10.57;6.28;;;29.80;38.50;;;;;;6109645;23;114399;-77
2023/07/19 10:46:19;;;;;;;9.80;5.60;;;29.80;37.80;;;;;;6108263;23;114844;-79
2023/07/19 10:48:53;;;;;;;7.18;4.90;;;29.80;38.20;;;;;;6107844;23;115148;-78
2023/07/19 10:51:20;;;;;;;7.20;5.13;;;29.80;37.90;;;;;;6110630;22;114357;-79
2023/07/19 10:53:58;;;;;;;7.18;5.63;;;29.80;37.80;;;;;;6110837;23;114053;-79
2023/07/19 10:56:27;;;;;;;7.47;5.38;;;29.80;37.60;;;;;;6108213;23;114830;-78
2023/07/19 10:58:58;;;;;;;8.70;5.18;;;29.80;37.90;;;;;;6109788;23;114559;-79
2023/07/19 11:01:29;;;;;;;9.52;5.22;;;29.90;37.20;;;;;;6108439;23;114164;-79
2023/07/19 11:04:04;;;;;;;8.88;5.15;;;29.80;37.50;;;;;;6110431;22;113996;-78
2023/07/19 11:06:32;;;;;;;9.85;5.40;;;29.90;37.10;;;;;;6107898;23;116255;-79
2023/07/19 11:09:08;;;;;;;7.55;5.43;;;29.90;37.40;;;;;;6109474;22;115114;-78
2023/07/19 11:11:38;;;;;;;9.27;5.30;;;29.90;37.10;;;;;;6109392;23;114354;-78
2023/07/19 11:14:06;;;;;;;9.05;5.03;;;29.90;36.60;;;;;;6108756;23;114075;-78
2023/07/19 11:16:34;;;;;;;8.68;4.97;;;29.90;37.10;;;;;;6109458;23;114644;-78
2023/07/19 11:19:03;;;;;;;6.15;4.90;;;30.00;36.40;;;;;;6110016;23;115023;-78
2023/07/19 11:21:30;;;;;;;7.43;5.25;;;30.00;36.40;;;;;;6109125;23;114285;-78
2023/07/19 11:23:58;;;;;;;12.07;5.32;;;30.10;36.40;;;;;;6111078;23;114090;-79
2023/07/19 11:26:25;;;;;;;9.02;5.20;;;30.00;36.40;;;;;;6109131;23;115403;-78
2023/07/19 11:28:56;;;;;;;9.80;5.35;;;30.00;35.60;;;;;;6109344;23;114600;-78
2023/07/19 11:31:29;;;;;;;11.23;5.30;;;30.10;36.20;;;;;;6084291;23;114148;-80
2023/07/19 11:33:59;;;;;;;9.75;4.90;;;30.20;36.40;;;;;;6110257;22;114110;-79
2023/07/19 11:36:28;;;;;;;8.55;5.03;;;30.20;36.50;;;;;;6107447;23;114996;-78
2023/07/19 11:38:56;;;;;;;7.30;4.50;;;30.20;35.60;;;;;;6132401;22;116129;-78
2023/07/19 11:41:23;;;;;;;8.57;4.82;;;30.20;35.20;;;;;;6110280;23;114057;-77
2023/07/19 11:43:51;;;;;;;7.97;4.60;;;30.10;35.30;;;;;;6109436;23;114305;-78
2023/07/19 11:46:18;;;;;;;7.90;4.80;;;30.10;35.60;;;;;;6109598;22;116211;-79
2023/07/19 11:48:46;;;;;;;6.32;4.13;;;30.10;35.50;;;;;;6109373;22;114564;-79
2023/07/19 11:51:14;;;;;;;9.48;4.90;;;30.20;35.30;;;;;;6108668;23;114104;-80
2023/07/19 11:53:41;;;;;;;7.10;4.40;;;30.30;34.30;;;;;;6111235;23;114046;-79
2023/07/19 11:56:08;;;;;;;7.05;4.22;;;30.30;33.90;;;;;;6109242;23;115020;-78
2023/07/19 11:58:38;;;;;;;6.57;4.20;;;30.30;33.90;;;;;;6106937;23;117482;-79
2023/07/19 12:01:13;;;;;;;6.32;4.32;;;30.20;34.00;;;;;;6110110;23;114041;-79
2023/07/19 12:03:40;;;;;;;8.27;4.80;;;30.20;34.10;;;;;;6108592;23;114456;-78
2023/07/19 12:06:08;;;;;;;9.25;5.10;;;30.10;34.20;;;;;;6109334;23;115408;-78
2023/07/19 12:08:36;;;;;;;7.00;5.03;;;30.10;34.80;;;;;;6108042;23;116281;-79
2023/07/19 12:11:04;;;;;;;8.02;4.68;;;30.20;34.60;;;;;;6110039;23;114293;-79
2023/07/19 12:13:31;;;;;;;6.85;4.88;;;30.30;34.80;;;;;;6108708;22;114568;-78
2023/07/19 12:15:58;;;;;;;8.90;4.68;;;30.40;34.60;;;;;;6107940;23;114921;-78
2023/07/19 12:18:26;;;;;;;7.35;5.07;;;30.50;34.30;;;;;;6107663;23;114625;-79
2023/07/19 12:20:55;;;;;;;8.65;5.85;;;30.50;33.40;;;;;;6110186;22;114248;-79
2023/07/19 12:23:23;;;;;;;6.93;4.90;;;30.60;33.80;;;;;;6109943;23;114247;-80
2023/07/19 12:25:55;;;;;;;7.75;5.22;;;30.60;34.10;;;;;;6107619;23;114886;-79
2023/07/19 12:28:22;;;;;;;9.18;5.32;;;30.70;33.70;;;;;;6107314;23;114572;-79
2023/07/19 12:30:50;;;;;;;9.15;5.40;;;30.70;33.80;;;;;;6109899;23;114135;-78
2023/07/19 12:33:17;;;;;;;8.25;5.70;;;30.70;34.20;;;;;;6110535;22;113992;-78
2023/07/19 12:35:46;;;;;;;9.50;5.18;;;30.80;33.70;;;;;;6109666;22;116071;-78